createdAt,value
2019-04-25T00:00:40.570Z,10.17
2019-04-25T00:03:13.257Z,10.20
2019-04-25T00:05:48.222Z,10.03
2019-04-25T00:08:21.501Z,10.07
2019-04-25T00:10:53.469Z,10.05
2019-04-25T00:13:27.095Z,9.81
2019-04-25T00:15:58.872Z,9.67
2019-04-25T00:18:31.900Z,9.64
2019-04-25T00:21:12.184Z,9.77
2019-04-25T00:23:47.102Z,9.79
2019-04-25T00:26:40.161Z,9.75
2019-04-25T00:29:14.246Z,9.78
2019-04-25T00:31:47.227Z,9.81
2019-04-25T00:34:19.189Z,9.78
2019-04-25T00:36:51.562Z,9.70
2019-04-25T00:39:24.692Z,9.47
2019-04-25T00:41:56.965Z,9.44
2019-04-25T00:44:28.823Z,9.28
2019-04-25T00:47:02.433Z,9.26
2019-04-25T00:49:34.311Z,9.38
2019-04-25T00:52:06.185Z,9.38
2019-04-25T00:54:38.013Z,9.14
2019-04-25T00:57:09.819Z,9.15
2019-04-25T00:59:56.375Z,9.30
2019-04-25T01:02:35.038Z,9.29
2019-04-25T01:05:07.537Z,9.49
2019-04-25T01:07:39.353Z,9.79
2019-04-25T01:10:11.886Z,10.12
2019-04-25T01:12:44.579Z,10.33
2019-04-25T01:15:16.593Z,10.28
2019-04-25T01:17:48.855Z,10.27
2019-04-25T01:20:21.009Z,10.09
2019-04-25T01:22:54.316Z,10.06
2019-04-25T01:25:38.352Z,10.06
2019-04-25T01:28:00.882Z,9.99
2019-04-25T01:30:33.974Z,10.07
2019-04-25T01:33:06.503Z,10.10
2019-04-25T01:35:51.308Z,10.14
2019-04-25T01:38:49.080Z,10.14
2019-04-25T01:41:44.137Z,9.92
2019-04-25T01:44:35.007Z,9.04
2019-04-25T01:47:08.596Z,8.98
2019-04-25T01:49:40.367Z,8.90
2019-04-25T01:52:13.675Z,8.88
2019-04-25T01:54:45.736Z,8.87
2019-04-25T01:57:17.482Z,8.86
2019-04-25T01:59:49.868Z,8.91
2019-04-25T02:02:23.803Z,8.97
2019-04-25T02:04:57.975Z,8.95
2019-04-25T02:07:29.095Z,8.99
2019-04-25T02:10:03.811Z,8.95
2019-04-25T02:12:43.989Z,9.09
2019-04-25T02:15:17.584Z,9.06
2019-04-25T02:17:50.958Z,8.94
2019-04-25T02:20:23.905Z,8.88
2019-04-25T02:22:56.453Z,8.93
2019-04-25T02:25:28.453Z,9.04
2019-04-25T02:28:02.337Z,9.05
2019-04-25T02:30:35.631Z,9.05
2019-04-25T02:33:09.255Z,9.08
2019-04-25T02:35:43.958Z,9.10
2019-04-25T02:38:16.923Z,8.97
2019-04-25T02:40:48.492Z,9.06
2019-04-25T02:43:21.368Z,9.00
2019-04-25T02:46:11.001Z,8.89
2019-04-25T02:49:09.175Z,8.69
2019-04-25T02:51:45.119Z,8.56
2019-04-25T02:54:16.563Z,8.46
2019-04-25T02:56:48.269Z,8.35
2019-04-25T02:59:19.988Z,8.37
2019-04-25T03:01:54.159Z,8.22
2019-04-25T03:04:25.325Z,8.05
2019-04-25T03:06:58.401Z,8.22
2019-04-25T03:09:30.447Z,8.14
2019-04-25T03:12:04.892Z,8.11
2019-04-25T03:14:35.751Z,8.03
2019-04-25T03:17:09.743Z,7.94
2019-04-25T03:20:06.702Z,7.81
2019-04-25T03:22:36.075Z,7.67
2019-04-25T03:25:11.521Z,7.69
2019-04-25T03:27:44.092Z,7.60
2019-04-25T03:30:25.347Z,7.40
2019-04-25T03:32:56.394Z,7.49
2019-04-25T03:35:29.331Z,7.54
2019-04-25T03:38:02.330Z,7.58
2019-04-25T03:40:34.159Z,7.51
2019-04-25T03:43:07.112Z,7.78
2019-04-25T03:45:38.893Z,7.95
2019-04-25T03:48:13.985Z,8.04
2019-04-25T03:50:45.683Z,8.12
2019-04-25T03:53:19.321Z,8.18
2019-04-25T03:55:51.046Z,8.14
2019-04-25T03:58:23.993Z,8.01
2019-04-25T04:00:55.836Z,8.15
2019-04-25T04:03:27.544Z,8.22
2019-04-25T04:06:00.718Z,8.30
2019-04-25T04:08:34.310Z,8.36
2019-04-25T04:11:07.396Z,8.31
2019-04-25T04:13:39.322Z,8.27
2019-04-25T04:16:13.482Z,8.04
2019-04-25T04:18:46.447Z,7.90
2019-04-25T04:21:36.543Z,7.89
2019-04-25T04:24:14.132Z,7.86
2019-04-25T04:27:06.898Z,7.83
2019-04-25T04:29:39.144Z,8.00
2019-04-25T04:32:10.867Z,7.91
2019-04-25T04:34:45.177Z,7.87
2019-04-25T04:37:16.346Z,7.76
2019-04-25T04:39:48.469Z,7.92
2019-04-25T04:42:20.704Z,7.88
2019-04-25T04:44:53.435Z,7.88
2019-04-25T04:47:25.427Z,7.91
2019-04-25T04:49:57.572Z,7.90
2019-04-25T04:52:30.970Z,7.85
2019-04-25T04:55:08.306Z,7.83
2019-04-25T04:57:38.013Z,7.91
2019-04-25T05:00:10.947Z,8.02
2019-04-25T05:02:56.281Z,8.06
2019-04-25T05:05:57.849Z,8.13
2019-04-25T05:08:35.132Z,8.16
2019-04-25T05:11:06.849Z,8.06
2019-04-25T05:13:39.734Z,8.06
2019-04-25T05:16:12.537Z,7.98
2019-04-25T05:18:46.515Z,7.90
2019-04-25T05:21:18.310Z,7.93
2019-04-25T05:23:52.269Z,7.82
2019-04-25T05:26:25.037Z,7.70
2019-04-25T05:28:58.322Z,7.70
2019-04-25T05:31:45.634Z,7.76
2019-04-25T05:34:19.627Z,7.75
2019-04-25T05:36:51.558Z,7.78
2019-04-25T05:39:24.072Z,7.89
2019-04-25T05:42:18.520Z,8.01
2019-04-25T05:44:50.467Z,7.90
2019-04-25T05:47:26.019Z,7.82
2019-04-25T05:49:58.130Z,7.88
2019-04-25T05:52:31.487Z,7.88
2019-04-25T05:55:03.970Z,7.98
2019-04-25T05:57:45.495Z,8.06
2019-04-25T06:00:10.535Z,8.17
2019-04-25T06:02:42.307Z,8.17
2019-04-25T06:05:14.259Z,8.37
2019-04-25T06:07:45.989Z,8.44
2019-04-25T06:10:30.420Z,8.55
2019-04-25T06:13:29.885Z,8.47
2019-04-25T06:16:09.622Z,8.26
2019-04-25T06:18:47.908Z,8.16
2019-04-25T06:21:21.459Z,8.25
2019-04-25T06:24:13.325Z,8.25
2019-04-25T06:27:01.078Z,8.10
2019-04-25T06:29:34.936Z,8.24
2019-04-25T06:32:08.603Z,8.32
2019-04-25T06:34:40.305Z,8.30
2019-04-25T06:37:13.755Z,8.34
2019-04-25T06:39:45.618Z,8.09
2019-04-25T06:42:17.349Z,7.98
2019-04-25T06:44:57.983Z,8.01
2019-04-25T06:47:51.383Z,8.49
2019-04-25T06:50:27.825Z,10.65
2019-04-25T06:53:03.512Z,10.69
2019-04-25T06:55:35.774Z,12.02
2019-04-25T06:58:12.048Z,13.50
2019-04-25T07:00:55.788Z,13.47
2019-04-25T07:03:15.624Z,14.92
2019-04-25T07:05:47.753Z,13.67
2019-04-25T07:08:19.850Z,12.88
2019-04-25T07:10:51.615Z,12.07
2019-04-25T07:13:24.786Z,10.39
2019-04-25T07:15:56.896Z,9.65
2019-04-25T07:18:33.121Z,10.00
2019-04-25T07:21:04.432Z,9.79
2019-04-25T07:23:36.511Z,9.75
2019-04-25T07:26:15.014Z,9.86
2019-04-25T07:29:05.390Z,9.83
2019-04-25T07:31:54.667Z,9.63
2019-04-25T07:34:27.421Z,10.20
2019-04-25T07:36:59.221Z,11.24
2019-04-25T07:39:34.420Z,12.48
2019-04-25T07:42:06.619Z,14.00
2019-04-25T07:44:49.938Z,12.10
2019-04-25T07:47:11.880Z,10.64
2019-04-25T07:49:43.663Z,10.36
2019-04-25T07:52:16.404Z,10.05
2019-04-25T07:54:48.180Z,10.02
2019-04-25T07:57:19.927Z,10.20
2019-04-25T07:59:53.603Z,10.34
2019-04-25T08:02:25.309Z,10.44
2019-04-25T08:05:00.132Z,13.61
2019-04-25T08:07:33.402Z,15.18
2019-04-25T08:10:06.411Z,16.41
2019-04-25T08:12:39.363Z,13.71
2019-04-25T08:15:30.280Z,12.31
2019-04-25T08:18:06.992Z,11.08
2019-04-25T08:20:38.797Z,10.89
2019-04-25T08:23:10.652Z,10.87
2019-04-25T08:25:43.349Z,11.18
2019-04-25T08:28:15.250Z,10.95
2019-04-25T08:30:47.016Z,12.89
2019-04-25T08:33:19.974Z,14.26
2019-04-25T08:36:04.229Z,16.71
2019-04-25T08:38:25.424Z,15.62
2019-04-25T08:41:01.991Z,15.02
2019-04-25T08:43:39.093Z,15.41
2019-04-25T08:46:10.457Z,13.50
2019-04-25T08:49:02.095Z,14.07
2019-04-25T08:51:36.081Z,14.75
2019-04-25T08:54:29.680Z,14.88
2019-04-25T08:57:04.321Z,14.01
2019-04-25T08:59:55.456Z,13.30
2019-04-25T09:02:44.978Z,13.42
2019-04-25T09:05:33.378Z,14.35
2019-04-25T09:08:05.587Z,13.27
2019-04-25T09:10:38.952Z,12.66
2019-04-25T09:13:11.079Z,12.47
2019-04-25T09:15:45.480Z,12.91
2019-04-25T09:18:16.676Z,14.86
2019-04-25T09:20:48.424Z,14.89
2019-04-25T09:23:20.181Z,16.56
2019-04-25T09:25:54.461Z,17.27
2019-04-25T09:28:26.256Z,16.14
2019-04-25T09:30:58.034Z,14.31
2019-04-25T09:33:29.934Z,13.78
2019-04-25T09:36:04.830Z,13.61
2019-04-25T09:38:37.040Z,13.02
2019-04-25T09:41:08.775Z,12.78
2019-04-25T09:43:40.551Z,12.59
2019-04-25T09:46:17.700Z,13.28
2019-04-25T09:49:07.432Z,15.06
2019-04-25T09:51:45.803Z,16.56
2019-04-25T09:54:38.122Z,17.03
2019-04-25T09:57:29.502Z,15.50
2019-04-25T10:00:01.225Z,15.32
2019-04-25T10:02:34.111Z,15.90
2019-04-25T10:05:06.040Z,16.25
2019-04-25T10:07:38.495Z,15.70
2019-04-25T10:10:10.263Z,17.34
2019-04-25T10:12:44.222Z,17.99
2019-04-25T10:15:50.449Z,17.11
2019-04-25T10:18:23.365Z,17.90
2019-04-25T10:20:55.461Z,16.86
2019-04-25T10:23:28.475Z,15.34
2019-04-25T10:26:00.194Z,14.87
2019-04-25T10:28:33.480Z,15.03
2019-04-25T10:31:05.531Z,14.55
2019-04-25T10:33:37.293Z,14.65
2019-04-25T10:36:10.031Z,15.00
2019-04-25T10:38:42.332Z,14.79
2019-04-25T10:41:14.633Z,16.16
2019-04-25T10:43:48.385Z,15.52
2019-04-25T10:46:20.511Z,15.54
2019-04-25T10:48:55.960Z,17.51
2019-04-25T10:51:26.213Z,19.28
2019-04-25T10:53:57.954Z,17.50
2019-04-25T10:56:29.732Z,17.18
2019-04-25T10:59:04.276Z,16.18
2019-04-25T11:01:36.232Z,16.27
2019-04-25T11:04:17.416Z,15.30
2019-04-25T11:06:51.823Z,14.84
2019-04-25T11:09:30.486Z,14.21
2019-04-25T11:12:02.210Z,12.18
2019-04-25T11:14:35.569Z,11.49
2019-04-25T11:17:07.279Z,14.68
2019-04-25T11:19:44.055Z,15.52
2019-04-25T11:22:15.644Z,16.09
2019-04-25T11:24:48.559Z,16.93
2019-04-25T11:27:23.763Z,16.45
2019-04-25T11:30:08.620Z,17.07
2019-04-25T11:32:29.069Z,16.49
2019-04-25T11:35:03.557Z,19.05
2019-04-25T11:37:35.876Z,17.98
2019-04-25T11:40:15.676Z,19.03
2019-04-25T11:42:57.852Z,17.73
2019-04-25T11:45:29.623Z,17.71
2019-04-25T11:48:01.978Z,17.14
2019-04-25T11:50:37.028Z,17.80
2019-04-25T11:53:08.429Z,17.31
2019-04-25T11:55:40.538Z,17.30
2019-04-25T11:58:14.151Z,16.36
2019-04-25T12:00:47.347Z,15.96
2019-04-25T12:03:19.161Z,15.62
2019-04-25T12:05:54.777Z,16.38
2019-04-25T12:08:26.503Z,15.67
2019-04-25T12:10:58.241Z,15.21
2019-04-25T12:13:32.375Z,15.27
2019-04-25T12:16:04.206Z,15.26
2019-04-25T12:18:37.527Z,15.51
2019-04-25T12:21:09.261Z,15.46
2019-04-25T12:23:40.961Z,15.61
2019-04-25T12:26:14.603Z,15.29
2019-04-25T12:28:47.240Z,14.82
2019-04-25T12:31:19.916Z,13.99
2019-04-25T12:33:54.897Z,14.30
2019-04-25T12:36:29.283Z,14.59
2019-04-25T12:39:01.159Z,14.90
2019-04-25T12:41:34.477Z,15.64
2019-04-25T12:44:43.454Z,15.45
2019-04-25T12:47:20.965Z,15.56
2019-04-25T12:49:56.107Z,15.42
2019-04-25T12:52:28.929Z,15.59
2019-04-25T12:55:03.949Z,16.20
2019-04-25T12:57:35.912Z,15.76
2019-04-25T13:00:09.554Z,15.46
2019-04-25T13:02:41.570Z,16.00
2019-04-25T13:05:16.455Z,15.68
2019-04-25T13:07:49.452Z,15.29
2019-04-25T13:10:23.615Z,14.91
2019-04-25T13:12:55.720Z,15.61
2019-04-25T13:15:28.301Z,15.48
2019-04-25T13:18:00.477Z,16.01
2019-04-25T13:20:32.216Z,15.57
2019-04-25T13:23:05.771Z,16.06
2019-04-25T13:25:37.757Z,16.25
2019-04-25T13:28:24.356Z,16.06
2019-04-25T13:31:14.856Z,16.39
2019-04-25T13:34:11.644Z,16.63
2019-04-25T13:36:44.312Z,16.21
2019-04-25T13:39:18.683Z,15.90
2019-04-25T13:41:50.431Z,15.81
2019-04-25T13:44:24.346Z,16.21
2019-04-25T13:46:56.186Z,15.55
2019-04-25T13:49:27.927Z,15.75
2019-04-25T13:52:02.005Z,15.89
2019-04-25T13:54:35.430Z,16.66
2019-04-25T13:57:07.178Z,16.20
2019-04-25T13:59:38.949Z,16.27
2019-04-25T14:02:11.108Z,16.03
2019-04-25T14:04:44.192Z,15.45
2019-04-25T14:07:16.334Z,14.88
2019-04-25T14:09:53.259Z,14.66
2019-04-25T14:12:26.888Z,12.30
2019-04-25T14:14:58.962Z,12.16
2019-04-25T14:17:46.314Z,12.42
2019-04-25T14:20:48.491Z,12.97
2019-04-25T14:23:23.529Z,13.38
2019-04-25T14:25:55.125Z,13.61
2019-04-25T14:28:30.168Z,13.72
2019-04-25T14:31:02.465Z,13.81
2019-04-25T14:33:35.408Z,13.94
2019-04-25T14:36:07.521Z,14.40
2019-04-25T14:38:39.571Z,14.28
2019-04-25T14:41:12.042Z,14.34
2019-04-25T14:43:46.410Z,14.20
2019-04-25T14:46:17.913Z,13.93
2019-04-25T14:48:50.315Z,13.51
2019-04-25T14:51:22.967Z,13.40
2019-04-25T14:53:58.650Z,13.17
2019-04-25T14:56:40.630Z,13.12
2019-04-25T14:59:12.626Z,12.98
2019-04-25T15:01:45.396Z,12.39
2019-04-25T15:04:18.107Z,12.40
2019-04-25T15:06:50.833Z,12.40
2019-04-25T15:09:23.492Z,12.48
2019-04-25T15:11:55.374Z,12.52
2019-04-25T15:14:27.163Z,12.63
2019-04-25T15:17:00.581Z,12.45
2019-04-25T15:19:33.964Z,12.49
2019-04-25T15:22:07.067Z,12.77
2019-04-25T15:24:40.748Z,12.32
2019-04-25T15:27:12.735Z,12.28
2019-04-25T15:29:44.615Z,12.48
2019-04-25T15:32:19.644Z,12.57
2019-04-25T15:35:00.103Z,12.66
2019-04-25T15:37:37.230Z,12.74
2019-04-25T15:40:18.659Z,12.82
2019-04-25T15:43:27.712Z,13.30
2019-04-25T15:46:30.468Z,12.88
2019-04-25T15:49:03.024Z,12.68
2019-04-25T15:51:35.554Z,12.18
2019-04-25T15:54:07.647Z,12.26
2019-04-25T15:56:39.582Z,12.24
2019-04-25T15:59:12.720Z,11.80
2019-04-25T16:01:44.560Z,11.73
2019-04-25T16:04:19.140Z,11.77
2019-04-25T16:06:51.549Z,11.88
2019-04-25T16:09:24.847Z,12.18
2019-04-25T16:11:58.130Z,12.11
2019-04-25T16:14:31.344Z,12.06
2019-04-25T16:17:03.765Z,12.48
2019-04-25T16:19:38.339Z,12.50
2019-04-25T16:22:12.192Z,12.42
2019-04-25T16:24:46.667Z,12.43
2019-04-25T16:27:19.891Z,12.56
2019-04-25T16:29:52.415Z,12.68
2019-04-25T16:32:26.059Z,12.36
2019-04-25T16:34:59.903Z,12.47
2019-04-25T16:37:32.504Z,12.71
2019-04-25T16:40:06.078Z,13.18
2019-04-25T16:42:38.486Z,13.29
2019-04-25T16:45:11.148Z,13.11
2019-04-25T16:47:43.435Z,13.30
2019-04-25T16:50:16.187Z,13.36
2019-04-25T16:52:49.295Z,13.47
2019-04-25T16:55:24.122Z,13.29
2019-04-25T16:57:56.159Z,13.41
2019-04-25T17:00:46.354Z,13.29
2019-04-25T17:03:18.897Z,13.17
2019-04-25T17:05:53.192Z,13.32
2019-04-25T17:08:25.186Z,13.47
2019-04-25T17:10:57.049Z,13.40
2019-04-25T17:13:32.131Z,13.57
2019-04-25T17:16:14.728Z,13.56
2019-04-25T17:18:55.842Z,13.51
2019-04-25T17:21:27.907Z,13.32
2019-04-25T17:23:59.731Z,13.35
2019-04-25T17:26:32.732Z,13.16
2019-04-25T17:29:07.858Z,13.37
2019-04-25T17:32:08.390Z,13.40
2019-04-25T17:35:09.973Z,13.22
2019-04-25T17:38:06.592Z,13.13
2019-04-25T17:40:38.479Z,13.13
2019-04-25T17:43:11.480Z,13.25
2019-04-25T17:45:44.220Z,13.28
2019-04-25T17:48:16.096Z,13.23
2019-04-25T17:50:49.857Z,13.04
2019-04-25T17:53:24.824Z,13.04
2019-04-25T17:55:57.532Z,12.61
2019-04-25T17:58:30.573Z,12.58
2019-04-25T18:01:02.793Z,12.46
2019-04-25T18:03:35.344Z,12.26
2019-04-25T18:06:09.457Z,12.36
2019-04-25T18:08:41.768Z,12.36
2019-04-25T18:11:14.288Z,12.50
2019-04-25T18:13:46.680Z,12.50
2019-04-25T18:16:32.590Z,12.42
2019-04-25T18:19:30.916Z,12.40
2019-04-25T18:22:10.739Z,12.49
2019-04-25T18:25:01.144Z,12.50
2019-04-25T18:27:50.840Z,12.40
2019-04-25T18:30:23.697Z,12.61
2019-04-25T18:33:10.745Z,12.53
2019-04-25T18:35:42.694Z,12.60
2019-04-25T18:38:27.532Z,12.59
2019-04-25T18:41:05.972Z,12.75
2019-04-25T18:43:47.165Z,12.56
2019-04-25T18:46:30.333Z,12.59
2019-04-25T18:49:02.803Z,12.51
2019-04-25T18:51:36.276Z,12.51
2019-04-25T18:54:31.305Z,12.37
2019-04-25T18:57:33.096Z,12.34
2019-04-25T19:00:42.146Z,12.47
2019-04-25T19:03:29.317Z,12.45
2019-04-25T19:06:04.206Z,12.51
2019-04-25T19:08:36.154Z,12.42
2019-04-25T19:11:08.413Z,12.23
2019-04-25T19:13:41.060Z,12.05
2019-04-25T19:16:15.050Z,12.08
2019-04-25T19:18:49.155Z,12.16
2019-04-25T19:21:21.623Z,12.12
2019-04-25T19:23:53.703Z,12.06
2019-04-25T19:26:26.090Z,12.02
2019-04-25T19:28:58.535Z,12.00
2019-04-25T19:31:30.483Z,11.78
2019-04-25T19:34:10.718Z,11.83
2019-04-25T19:36:42.776Z,11.77
2019-04-25T19:39:20.558Z,11.65
2019-04-25T19:42:16.197Z,11.72
2019-04-25T19:44:49.891Z,11.70
2019-04-25T19:47:24.526Z,11.68
2019-04-25T19:49:57.478Z,11.74
2019-04-25T19:52:39.987Z,11.76
2019-04-25T19:55:17.794Z,11.72
2019-04-25T19:57:52.545Z,11.79
2019-04-25T20:00:25.132Z,11.73
2019-04-25T20:03:14.421Z,11.74
2019-04-25T20:05:55.352Z,11.63
2019-04-25T20:08:35.852Z,11.67
2019-04-25T20:11:12.700Z,11.58
2019-04-25T20:13:45.792Z,11.44
2019-04-25T20:16:17.690Z,11.40
2019-04-25T20:18:49.941Z,11.43
2019-04-25T20:21:23.776Z,11.39
2019-04-25T20:23:55.965Z,11.44
2019-04-25T20:26:29.665Z,11.33
2019-04-25T20:29:01.938Z,11.41
2019-04-25T20:31:34.025Z,11.45
2019-04-25T20:34:07.075Z,11.37
2019-04-25T20:36:39.663Z,11.39
2019-04-25T20:39:12.043Z,11.51
2019-04-25T20:41:45.432Z,11.43
2019-04-25T20:44:18.918Z,11.48
2019-04-25T20:46:54.768Z,11.35
2019-04-25T20:49:29.033Z,11.34
2019-04-25T20:52:01.641Z,11.42
2019-04-25T20:54:34.176Z,11.36
2019-04-25T20:57:08.376Z,11.28
2019-04-25T20:59:41.672Z,11.05
2019-04-25T21:02:14.272Z,10.98
2019-04-25T21:04:46.273Z,11.00
2019-04-25T21:07:19.209Z,11.13
2019-04-25T21:09:51.365Z,11.10
2019-04-25T21:12:23.164Z,11.09
2019-04-25T21:15:32.155Z,11.09
2019-04-25T21:18:23.478Z,11.27
2019-04-25T21:20:55.573Z,11.27
2019-04-25T21:23:29.183Z,11.24
2019-04-25T21:26:01.309Z,11.34
2019-04-25T21:28:33.176Z,11.49
2019-04-25T21:31:05.116Z,11.58
2019-04-25T21:33:37.294Z,11.42
2019-04-25T21:36:10.437Z,11.37
2019-04-25T21:38:44.131Z,11.33
2019-04-25T21:41:34.114Z,11.54
2019-04-25T21:44:06.962Z,11.44
2019-04-25T21:46:43.666Z,11.56
2019-04-25T21:49:18.605Z,11.32
2019-04-25T21:51:50.480Z,11.44
2019-04-25T21:54:22.353Z,11.39
2019-04-25T21:56:56.015Z,11.35
2019-04-25T21:59:28.099Z,11.32
2019-04-25T22:02:00.603Z,11.23
2019-04-25T22:04:39.232Z,11.08
2019-04-25T22:07:08.967Z,11.08
2019-04-25T22:09:41.831Z,11.04
2019-04-25T22:12:15.252Z,11.07
2019-04-25T22:14:47.254Z,11.08
2019-04-25T22:17:20.448Z,11.10
2019-04-25T22:19:52.832Z,11.03
2019-04-25T22:22:26.651Z,11.15
2019-04-25T22:24:58.611Z,10.99
2019-04-25T22:27:36.536Z,11.03
2019-04-25T22:30:09.117Z,11.12
2019-04-25T22:32:50.268Z,11.05
2019-04-25T22:35:45.941Z,11.00
2019-04-25T22:38:17.859Z,10.95
2019-04-25T22:40:49.715Z,11.01
2019-04-25T22:43:22.070Z,10.76
2019-04-25T22:45:54.407Z,10.60
2019-04-25T22:48:45.280Z,10.57
2019-04-25T22:51:18.781Z,10.63
2019-04-25T22:53:50.557Z,10.54
2019-04-25T22:56:22.330Z,10.46
2019-04-25T22:58:54.165Z,10.40
2019-04-25T23:01:33.387Z,10.39
2019-04-25T23:04:09.920Z,10.31
2019-04-25T23:06:42.296Z,10.31
2019-04-25T23:09:14.237Z,10.22
2019-04-25T23:11:48.235Z,10.18
2019-04-25T23:14:21.008Z,10.10
2019-04-25T23:19:35.962Z,9.96
2019-04-25T23:22:07.717Z,10.03
2019-04-25T23:24:43.905Z,9.98
2019-04-25T23:27:33.952Z,9.91
2019-04-25T23:30:06.689Z,9.82
2019-04-25T23:32:38.799Z,9.76
2019-04-25T23:35:24.300Z,9.78
2019-04-25T23:37:43.979Z,9.79
2019-04-25T23:40:15.882Z,9.89
2019-04-25T23:42:47.686Z,9.90
2019-04-25T23:45:22.266Z,9.98
2019-04-25T23:47:54.007Z,9.83
2019-04-25T23:50:26.002Z,9.78
2019-04-25T23:52:58.170Z,9.86
2019-04-25T23:55:30.528Z,9.82
2019-04-25T23:58:02.253Z,9.94
